createdAt,value
2018-02-11T00:01:53.549Z,11.07
2018-02-11T00:04:21.094Z,10.77
2018-02-11T00:06:49.372Z,10.03
2018-02-11T00:09:18.620Z,9.50
2018-02-11T00:11:46.135Z,10.63
2018-02-11T00:14:14.201Z,9.97
2018-02-11T00:16:41.970Z,10.67
2018-02-11T00:19:10.216Z,9.13
2018-02-11T00:21:38.517Z,9.70
2018-02-11T00:24:06.032Z,9.67
2018-02-11T00:26:35.939Z,9.73
2018-02-11T00:29:03.782Z,9.67
2018-02-11T00:31:31.498Z,10.37
2018-02-11T00:34:00.195Z,10.80
2018-02-11T00:36:29.346Z,10.30
2018-02-11T00:38:56.880Z,10.20
2018-02-11T00:41:24.434Z,9.40
2018-02-11T00:43:51.947Z,9.93
2018-02-11T00:46:20.236Z,9.07
2018-02-11T00:48:49.556Z,9.23
2018-02-11T00:51:17.087Z,8.93
2018-02-11T00:53:45.831Z,8.60
2018-02-11T00:56:14.427Z,9.10
2018-02-11T00:58:42.212Z,8.70
2018-02-11T01:01:09.724Z,8.43
2018-02-11T01:03:37.243Z,8.43
2018-02-11T01:06:05.958Z,8.03
2018-02-11T01:08:33.663Z,9.10
2018-02-11T01:11:01.184Z,8.67
2018-02-11T01:13:29.058Z,8.17
2018-02-11T01:15:56.824Z,8.73
2018-02-11T01:18:24.649Z,8.20
2018-02-11T01:20:52.752Z,7.97
2018-02-11T01:23:20.821Z,8.63
2018-02-11T01:25:48.891Z,7.90
2018-02-11T01:28:17.103Z,8.40
2018-02-11T01:30:44.927Z,7.73
2018-02-11T01:33:12.967Z,8.40
2018-02-11T01:35:41.659Z,8.90
2018-02-11T01:38:09.839Z,9.00
2018-02-11T01:40:37.788Z,9.43
2018-02-11T01:43:06.071Z,10.63
2018-02-11T01:45:35.104Z,9.73
2018-02-11T01:48:02.615Z,10.23
2018-02-11T01:50:30.890Z,9.73
2018-02-11T01:52:59.179Z,11.13
2018-02-11T01:55:26.802Z,11.10
2018-02-11T01:57:54.339Z,11.73
2018-02-11T02:00:21.848Z,11.77
2018-02-11T02:02:49.576Z,11.60
2018-02-11T02:05:17.104Z,11.60
2018-02-11T02:07:44.624Z,11.73
2018-02-11T02:10:13.215Z,11.90
2018-02-11T02:12:41.284Z,11.30
2018-02-11T02:15:08.800Z,11.80
2018-02-11T02:17:36.752Z,11.50
2018-02-11T02:20:04.683Z,12.50
2018-02-11T02:22:32.200Z,12.00
2018-02-11T02:24:59.716Z,12.87
2018-02-11T02:27:27.760Z,12.40
2018-02-11T02:29:55.603Z,11.53
2018-02-11T02:32:23.895Z,12.27
2018-02-11T02:34:52.189Z,12.20
2018-02-11T02:37:19.704Z,11.57
2018-02-11T02:39:47.529Z,10.73
2018-02-11T02:42:15.055Z,11.33
2018-02-11T02:44:43.532Z,12.17
2018-02-11T02:47:11.825Z,11.40
2018-02-11T02:49:39.335Z,11.67
2018-02-11T02:52:06.847Z,12.33
2018-02-11T02:54:34.371Z,11.20
2018-02-11T02:57:02.837Z,11.87
2018-02-11T02:59:30.358Z,11.63
2018-02-11T03:01:57.881Z,11.80
2018-02-11T03:04:25.423Z,11.27
2018-02-11T03:06:53.700Z,10.87
2018-02-11T03:09:21.979Z,11.03
2018-02-11T03:11:50.286Z,11.03
2018-02-11T03:14:17.995Z,10.77
2018-02-11T03:16:45.530Z,10.00
2018-02-11T03:19:13.590Z,9.43
2018-02-11T03:21:41.660Z,9.80
2018-02-11T03:24:09.172Z,8.70
2018-02-11T03:26:39.172Z,9.53
2018-02-11T03:29:09.146Z,8.40
2018-02-11T03:31:36.660Z,8.57
2018-02-11T03:34:04.948Z,8.83
2018-02-11T03:36:34.161Z,7.77
2018-02-11T03:39:01.814Z,8.43
2018-02-11T03:41:29.540Z,8.07
2018-02-11T03:43:57.420Z,8.23
2018-02-11T03:46:25.704Z,7.57
2018-02-11T03:48:53.984Z,7.63
2018-02-11T03:51:22.261Z,8.03
2018-02-11T03:53:50.560Z,7.40
2018-02-11T03:56:18.407Z,8.20
2018-02-11T03:58:45.928Z,8.40
2018-02-11T04:01:13.996Z,7.57
2018-02-11T04:03:41.626Z,7.93
2018-02-11T04:06:09.343Z,7.60
2018-02-11T04:08:37.633Z,7.40
2018-02-11T04:11:05.704Z,7.67
2018-02-11T04:13:33.217Z,8.07
2018-02-11T04:16:00.738Z,8.47
2018-02-11T04:18:29.422Z,7.83
2018-02-11T04:20:56.938Z,7.80
2018-02-11T04:23:25.216Z,7.83
2018-02-11T04:25:53.503Z,7.90
2018-02-11T04:28:21.965Z,8.17
2018-02-11T04:30:50.751Z,8.77
2018-02-11T04:33:19.069Z,8.47
2018-02-11T04:35:46.791Z,8.73
2018-02-11T04:38:15.686Z,8.57
2018-02-11T04:40:43.971Z,8.67
2018-02-11T04:43:15.080Z,7.63
2018-02-11T04:45:42.905Z,9.40
2018-02-11T04:48:10.408Z,8.60
2018-02-11T04:50:37.916Z,8.23
2018-02-11T04:53:07.922Z,9.10
2018-02-11T04:55:35.632Z,8.80
2018-02-11T04:58:03.146Z,8.27
2018-02-11T05:00:30.665Z,9.13
2018-02-11T05:02:58.173Z,9.17
2018-02-11T05:05:25.680Z,8.33
2018-02-11T05:07:53.207Z,9.03
2018-02-11T05:10:20.712Z,9.40
2018-02-11T05:12:49.684Z,8.73
2018-02-11T05:15:17.217Z,8.10
2018-02-11T05:17:45.144Z,9.17
2018-02-11T05:20:12.660Z,8.70
2018-02-11T05:22:40.724Z,8.93
2018-02-11T05:25:08.469Z,9.37
2018-02-11T05:27:35.980Z,9.73
2018-02-11T05:30:05.071Z,9.23
2018-02-11T05:32:33.347Z,9.00
2018-02-11T05:35:01.624Z,9.57
2018-02-11T05:37:30.694Z,9.40
2018-02-11T05:39:58.684Z,9.57
2018-02-11T05:42:26.955Z,9.77
2018-02-11T05:44:55.848Z,10.30
2018-02-11T05:47:24.551Z,10.50
2018-02-11T05:49:52.072Z,11.50
2018-02-11T05:52:20.356Z,10.67
2018-02-11T05:54:47.895Z,11.57
2018-02-11T05:57:15.591Z,11.63
2018-02-11T05:59:44.296Z,10.27
2018-02-11T06:02:11.839Z,10.87
2018-02-11T06:04:40.902Z,10.90
2018-02-11T06:07:08.979Z,11.33
2018-02-11T06:09:38.022Z,11.90
2018-02-11T06:12:05.540Z,12.50
2018-02-11T06:14:34.058Z,11.40
2018-02-11T06:17:01.572Z,12.37
2018-02-11T06:19:29.895Z,11.93
2018-02-11T06:21:58.048Z,12.77
2018-02-11T06:24:26.913Z,13.13
2018-02-11T06:26:57.253Z,12.77
2018-02-11T06:29:25.536Z,14.13
2018-02-11T06:31:53.078Z,15.50
2018-02-11T06:34:21.359Z,15.53
2018-02-11T06:36:49.647Z,15.67
2018-02-11T06:39:17.736Z,14.87
2018-02-11T06:41:45.256Z,15.97
2018-02-11T06:44:13.552Z,14.63
2018-02-11T06:46:42.430Z,13.43
2018-02-11T06:49:10.711Z,14.30
2018-02-11T06:51:39.707Z,14.53
2018-02-11T06:54:08.696Z,14.03
2018-02-11T06:56:36.979Z,13.70
2018-02-11T06:59:06.961Z,14.90
2018-02-11T07:01:34.483Z,13.37
2018-02-11T07:04:02.454Z,14.50
2018-02-11T07:06:29.994Z,16.03
2018-02-11T07:08:57.513Z,15.20
2018-02-11T07:11:26.148Z,15.80
2018-02-11T07:13:53.996Z,15.33
2018-02-11T07:16:21.522Z,15.57
2018-02-11T07:18:49.807Z,15.97
2018-02-11T07:21:18.637Z,13.63
2018-02-11T07:23:46.156Z,15.70
2018-02-11T07:26:14.456Z,16.13
2018-02-11T07:28:41.981Z,16.60
2018-02-11T07:31:10.263Z,16.23
2018-02-11T07:33:39.432Z,15.93
2018-02-11T07:36:06.955Z,16.93
2018-02-11T07:38:34.476Z,15.73
2018-02-11T07:41:03.576Z,17.30
2018-02-11T07:43:31.116Z,15.33
2018-02-11T07:45:59.404Z,16.00
2018-02-11T07:48:27.688Z,15.00
2018-02-11T07:50:55.223Z,16.73
2018-02-11T07:53:23.932Z,16.67
2018-02-11T07:55:51.451Z,16.13
2018-02-11T07:58:21.400Z,16.03
2018-02-11T08:00:49.684Z,16.50
2018-02-11T08:03:23.813Z,16.13
2018-02-11T08:05:52.699Z,16.40
2018-02-11T08:08:20.232Z,16.97
2018-02-11T08:10:48.512Z,16.93
2018-02-11T08:13:17.117Z,16.10
2018-02-11T08:15:44.956Z,16.00
2018-02-11T08:18:13.235Z,15.80
2018-02-11T08:20:42.194Z,16.33
2018-02-11T08:23:10.478Z,15.77
2018-02-11T08:25:38.044Z,15.80
2018-02-11T08:28:06.335Z,14.87
2018-02-11T08:30:35.331Z,14.67
2018-02-11T08:33:03.603Z,14.73
2018-02-11T08:35:32.081Z,14.10
2018-02-11T08:38:00.387Z,13.10
2018-02-11T08:40:28.616Z,13.90
2018-02-11T08:42:56.904Z,12.63
2018-02-11T08:45:25.189Z,12.80
2018-02-11T08:47:53.273Z,12.13
2018-02-11T08:50:20.803Z,12.43
2018-02-11T08:52:49.083Z,13.43
2018-02-11T08:55:17.387Z,11.73
2018-02-11T08:57:45.128Z,11.97
2018-02-11T09:00:13.416Z,12.17
2018-02-11T09:02:40.941Z,12.20
2018-02-11T09:05:08.462Z,11.10
2018-02-11T09:07:36.008Z,12.53
2018-02-11T09:10:03.530Z,10.90
2018-02-11T09:12:32.512Z,11.30
2018-02-11T09:15:00.980Z,10.80
2018-02-11T09:17:28.510Z,11.00
2018-02-11T09:19:56.032Z,11.17
2018-02-11T09:22:23.552Z,10.77
2018-02-11T09:24:51.620Z,11.07
2018-02-11T09:27:19.179Z,10.90
2018-02-11T09:29:46.667Z,11.47
2018-02-11T09:32:14.969Z,10.83
2018-02-11T09:34:42.476Z,10.30
2018-02-11T09:37:10.315Z,9.63
2018-02-11T09:39:38.246Z,9.53
2018-02-11T09:42:07.619Z,10.07
2018-02-11T09:44:35.897Z,10.50
2018-02-11T09:47:04.176Z,9.00
2018-02-11T09:49:32.468Z,8.97
2018-02-11T09:51:59.984Z,8.53
2018-02-11T09:54:27.503Z,9.20
2018-02-11T09:56:55.225Z,8.43
2018-02-11T09:59:23.505Z,8.57
2018-02-11T10:01:51.795Z,8.67
2018-02-11T10:04:19.307Z,8.43
2018-02-11T10:06:47.089Z,8.00
2018-02-11T10:09:15.377Z,7.90
2018-02-11T10:11:43.661Z,8.37
2018-02-11T10:14:14.401Z,7.77
2018-02-11T10:16:41.978Z,8.30
2018-02-11T10:19:09.540Z,8.37
2018-02-11T10:21:37.081Z,8.90
2018-02-11T10:24:04.643Z,7.67
2018-02-11T10:26:35.860Z,8.13
2018-02-11T10:29:04.149Z,9.43
2018-02-11T10:31:33.123Z,7.63
2018-02-11T10:34:01.953Z,8.27
2018-02-11T10:36:29.466Z,8.10
2018-02-11T10:38:57.794Z,8.40
2018-02-11T10:41:25.315Z,8.40
2018-02-11T10:43:54.152Z,8.00
2018-02-11T10:46:22.004Z,8.23
2018-02-11T10:48:49.518Z,7.37
2018-02-11T10:51:17.808Z,6.03
2018-02-11T10:53:46.730Z,6.07
2018-02-11T10:56:14.663Z,5.40
2018-02-11T10:58:43.135Z,5.90
2018-02-11T11:01:11.410Z,5.63
2018-02-11T11:03:39.696Z,4.47
2018-02-11T11:06:08.217Z,4.10
2018-02-11T11:08:35.861Z,2.73
2018-02-11T11:11:03.373Z,1.90
2018-02-11T11:13:31.302Z,1.20
2018-02-11T11:15:58.828Z,1.40
2018-02-11T11:18:26.337Z,1.30
2018-02-11T11:20:53.844Z,1.60
2018-02-11T11:23:21.365Z,1.60
2018-02-11T11:25:50.028Z,1.57
2018-02-11T11:28:18.007Z,1.40
2018-02-11T11:30:45.483Z,1.77
2018-02-11T11:33:14.476Z,1.10
2018-02-11T11:35:41.983Z,1.00
2018-02-11T11:38:09.804Z,1.00
2018-02-11T11:40:38.400Z,0.80
2018-02-11T11:43:07.535Z,1.10
2018-02-11T11:45:35.048Z,1.10
2018-02-11T11:48:03.331Z,1.10
2018-02-11T11:50:31.628Z,1.00
2018-02-11T11:52:59.135Z,1.00
2018-02-11T11:55:26.643Z,1.20
2018-02-11T11:57:54.172Z,1.00
2018-02-11T12:00:22.772Z,1.10
2018-02-11T12:02:50.280Z,1.07
2018-02-11T12:05:17.800Z,1.30
2018-02-11T12:07:45.860Z,1.00
2018-02-11T12:10:13.410Z,0.70
2018-02-11T12:12:41.153Z,1.27
2018-02-11T12:15:10.140Z,1.00
2018-02-11T12:17:37.647Z,1.00
2018-02-11T12:20:05.156Z,1.03
2018-02-11T12:22:33.451Z,1.00
2018-02-11T12:25:00.962Z,1.00
2018-02-11T12:27:28.467Z,1.20
2018-02-11T12:29:58.272Z,1.10
2018-02-11T12:32:26.564Z,1.07
2018-02-11T12:34:54.087Z,1.07
2018-02-11T12:37:22.151Z,0.93
2018-02-11T12:39:50.084Z,1.23
2018-02-11T12:42:17.916Z,0.70
2018-02-11T12:44:46.787Z,0.97
2018-02-11T12:47:15.076Z,1.10
2018-02-11T12:49:44.200Z,1.00
2018-02-11T12:52:11.704Z,1.00
2018-02-11T12:54:39.219Z,1.00
2018-02-11T12:57:06.980Z,1.40
2018-02-11T12:59:34.499Z,1.30
2018-02-11T13:02:02.800Z,1.40
2018-02-11T13:04:30.679Z,1.30
2018-02-11T13:06:58.197Z,1.30
2018-02-11T13:09:26.467Z,1.40
2018-02-11T13:11:54.754Z,1.90
2018-02-11T13:14:23.028Z,1.30
2018-02-11T13:16:51.743Z,1.63
2018-02-11T13:19:19.247Z,1.60
2018-02-11T13:21:46.767Z,1.43
2018-02-11T13:24:14.289Z,1.23
2018-02-11T13:26:42.559Z,1.40
2018-02-11T13:29:10.856Z,1.80
2018-02-11T13:34:09.144Z,1.50
2018-02-11T13:36:36.672Z,1.20
2018-02-11T13:39:04.179Z,1.30
2018-02-11T13:41:34.162Z,1.13
2018-02-11T13:44:02.436Z,1.67
2018-02-11T13:46:30.713Z,1.40
2018-02-11T13:48:58.991Z,1.60
2018-02-11T13:51:27.264Z,2.00
2018-02-11T13:54:00.482Z,2.00
2018-02-11T13:56:27.996Z,1.73
2018-02-11T13:58:58.132Z,1.70
2018-02-11T14:01:26.829Z,1.83
2018-02-11T14:03:55.068Z,1.93
2018-02-11T14:06:22.576Z,1.77
2018-02-11T14:08:50.093Z,1.70
2018-02-11T14:11:18.371Z,1.77
2018-02-11T14:13:47.203Z,1.70
2018-02-11T14:16:14.716Z,1.53
2018-02-11T14:18:42.991Z,1.47
2018-02-11T14:21:11.285Z,1.80
2018-02-11T14:23:40.899Z,1.87
2018-02-11T14:26:09.707Z,1.93
2018-02-11T14:28:37.924Z,2.27
2018-02-11T14:31:05.860Z,1.90
2018-02-11T14:33:33.680Z,2.30
2018-02-11T14:36:01.971Z,2.50
2018-02-11T14:38:29.508Z,2.00
2018-02-11T14:40:57.812Z,1.83
2018-02-11T14:43:25.888Z,1.60
2018-02-11T14:45:53.393Z,2.00
2018-02-11T14:48:20.933Z,2.00
2018-02-11T14:50:48.564Z,1.63
2018-02-11T14:53:16.076Z,1.93
2018-02-11T14:55:43.593Z,1.53
2018-02-11T14:58:11.115Z,2.10
2018-02-11T15:00:38.643Z,1.70
2018-02-11T15:03:07.387Z,2.03
2018-02-11T15:05:34.900Z,1.60
2018-02-11T15:08:03.188Z,1.97
2018-02-11T15:10:31.470Z,1.53
2018-02-11T15:12:58.992Z,1.80
2018-02-11T15:15:26.501Z,1.70
2018-02-11T15:17:54.031Z,1.83
2018-02-11T15:20:22.307Z,1.20
2018-02-11T15:22:51.158Z,1.70
2018-02-11T15:25:18.673Z,1.90
2018-02-11T15:27:46.190Z,1.60
2018-02-11T15:30:13.725Z,1.50
2018-02-11T15:32:41.580Z,1.40
2018-02-11T15:35:09.512Z,1.33
2018-02-11T15:37:37.785Z,1.20
2018-02-11T15:40:06.278Z,1.30
2018-02-11T15:42:33.783Z,1.13
2018-02-11T15:45:01.289Z,1.33
2018-02-11T15:47:28.820Z,1.20
2018-02-11T15:49:57.104Z,1.43
2018-02-11T15:52:25.912Z,1.40
2018-02-11T15:54:53.425Z,1.17
2018-02-11T15:57:23.395Z,1.30
2018-02-11T15:59:50.903Z,1.40
2018-02-11T16:02:18.411Z,1.30
2018-02-11T16:04:46.139Z,1.40
2018-02-11T16:07:14.416Z,1.30
2018-02-11T16:09:42.703Z,2.17
2018-02-11T16:12:10.980Z,2.03
2018-02-11T16:14:39.695Z,1.80
2018-02-11T16:17:07.213Z,1.57
2018-02-11T16:19:35.727Z,1.57
2018-02-11T16:22:03.234Z,1.47
2018-02-11T16:24:30.744Z,1.83
2018-02-11T16:26:58.704Z,2.13
2018-02-11T16:29:26.222Z,1.60
2018-02-11T16:31:54.756Z,2.10
2018-02-11T16:34:23.070Z,1.80
2018-02-11T16:36:50.889Z,2.03
2018-02-11T16:39:18.576Z,2.13
2018-02-11T16:41:46.504Z,2.60
2018-02-11T16:44:14.364Z,2.27
2018-02-11T16:46:41.891Z,2.07
2018-02-11T16:49:09.399Z,2.03
2018-02-11T16:51:36.903Z,2.10
2018-02-11T16:54:04.419Z,2.40
2018-02-11T16:56:31.934Z,2.53
2018-02-11T16:59:00.247Z,3.13
2018-02-11T17:01:27.772Z,2.00
2018-02-11T17:03:56.048Z,2.43
2018-02-11T17:06:24.631Z,2.80
2018-02-11T17:08:53.711Z,2.17
2018-02-11T17:11:21.636Z,2.40
2018-02-11T17:13:49.163Z,2.37
2018-02-11T17:16:16.672Z,1.90
2018-02-11T17:18:48.256Z,2.13
2018-02-11T17:21:16.536Z,1.83
2018-02-11T17:23:47.288Z,2.50
2018-02-11T17:26:14.859Z,2.20
2018-02-11T17:28:42.501Z,2.13
2018-02-11T17:31:10.797Z,2.03
2018-02-11T17:33:38.695Z,2.23
2018-02-11T17:36:06.644Z,2.70
2018-02-11T17:38:34.429Z,2.13
2018-02-11T17:41:02.924Z,2.40
2018-02-11T17:43:30.431Z,2.50
2018-02-11T17:46:00.311Z,1.97
2018-02-11T17:48:28.587Z,2.40
2018-02-11T17:50:56.866Z,2.30
2018-02-11T17:53:25.144Z,1.90
2018-02-11T17:55:53.422Z,2.40
2018-02-11T17:58:22.032Z,2.20
2018-02-11T18:00:49.543Z,2.60
2018-02-11T18:03:18.561Z,2.27
2018-02-11T18:05:47.386Z,2.60
2018-02-11T18:08:15.341Z,2.73
2018-02-11T18:10:42.883Z,2.50
2018-02-11T18:13:10.453Z,3.00
2018-02-11T18:15:38.022Z,2.97
2018-02-11T18:18:05.570Z,2.60
2018-02-11T18:20:33.675Z,2.47
2018-02-11T18:23:03.746Z,2.80
2018-02-11T18:25:31.267Z,2.30
2018-02-11T18:27:58.876Z,2.60
2018-02-11T18:30:26.377Z,2.37
2018-02-11T18:32:53.913Z,2.53
2018-02-11T18:35:21.735Z,3.00
2018-02-11T18:37:50.009Z,2.27
2018-02-11T18:40:18.297Z,2.07
2018-02-11T18:42:46.135Z,2.80
2018-02-11T18:45:15.404Z,2.73
2018-02-11T18:47:42.929Z,2.53
2018-02-11T18:50:10.853Z,2.80
2018-02-11T18:52:39.143Z,2.47
2018-02-11T18:55:07.446Z,2.57
2018-02-11T18:57:34.979Z,2.63
2018-02-11T19:00:03.263Z,2.80
2018-02-11T19:02:31.564Z,3.07
2018-02-11T19:04:59.075Z,3.17
2018-02-11T19:07:27.359Z,3.30
2018-02-11T19:09:55.643Z,2.83
2018-02-11T19:12:23.928Z,3.40
2018-02-11T19:14:52.059Z,4.43
2018-02-11T19:17:19.560Z,3.90
2018-02-11T19:19:47.692Z,4.97
2018-02-11T19:22:15.217Z,4.80
2018-02-11T19:24:43.398Z,5.20
2018-02-11T19:27:11.717Z,4.43
2018-02-11T19:29:40.839Z,4.27
2018-02-11T19:32:08.369Z,3.93
2018-02-11T19:34:36.672Z,3.70
2018-02-11T19:37:04.789Z,4.10
2018-02-11T19:39:33.072Z,3.87
2018-02-11T19:42:00.612Z,3.90
2018-02-11T19:44:28.136Z,3.80
2018-02-11T19:46:55.648Z,3.73
2018-02-11T19:49:23.193Z,3.70
2018-02-11T19:51:50.734Z,3.50
2018-02-11T19:54:18.971Z,4.40
2018-02-11T19:56:47.578Z,4.00
2018-02-11T19:59:15.516Z,3.80
2018-02-11T20:01:44.113Z,3.83
2018-02-11T20:04:11.632Z,3.90
2018-02-11T20:06:39.181Z,3.50
2018-02-11T20:09:07.245Z,3.90
2018-02-11T20:11:35.408Z,3.23
2018-02-11T20:14:03.377Z,3.50
2018-02-11T20:16:31.687Z,4.07
2018-02-11T20:19:02.869Z,3.33
2018-02-11T20:21:30.389Z,3.77
2018-02-11T20:23:59.228Z,3.97
2018-02-11T20:26:27.069Z,4.20
2018-02-11T20:28:54.590Z,3.43
2018-02-11T20:31:22.118Z,3.73
2018-02-11T20:33:50.067Z,3.77
2018-02-11T20:36:17.781Z,4.17
2018-02-11T20:38:45.303Z,4.17
2018-02-11T20:41:13.533Z,3.30
2018-02-11T20:43:41.825Z,3.20
2018-02-11T20:46:09.345Z,3.93
2018-02-11T20:48:36.865Z,3.50
2018-02-11T20:51:04.388Z,3.30
2018-02-11T20:53:32.865Z,3.87
2018-02-11T20:56:02.439Z,3.43
2018-02-11T20:58:32.455Z,3.27
2018-02-11T21:00:59.973Z,3.87
2018-02-11T21:03:27.521Z,3.10
2018-02-11T21:05:55.462Z,3.20
2018-02-11T21:08:23.751Z,3.80
2018-02-11T21:10:52.032Z,3.03
2018-02-11T21:13:20.320Z,3.17
2018-02-11T21:15:47.839Z,3.10
2018-02-11T21:18:16.135Z,3.47
2018-02-11T21:20:44.443Z,3.47
2018-02-11T21:23:11.957Z,3.50
2018-02-11T21:25:40.240Z,2.77
2018-02-11T21:28:08.538Z,2.67
2018-02-11T21:30:38.292Z,2.90
2018-02-11T21:33:07.139Z,2.60
2018-02-11T21:35:35.468Z,3.37
2018-02-11T21:38:04.052Z,3.67
2018-02-11T21:40:31.579Z,3.27
2018-02-11T21:42:59.221Z,2.73
2018-02-11T21:45:26.758Z,3.27
2018-02-11T21:47:55.364Z,3.10
2018-02-11T21:50:23.318Z,3.03
2018-02-11T21:52:52.136Z,3.03
2018-02-11T21:55:19.649Z,2.90
2018-02-11T21:57:47.938Z,2.57
2018-02-11T22:00:15.460Z,2.43
2018-02-11T22:02:42.988Z,3.50
2018-02-11T22:05:11.315Z,3.20
2018-02-11T22:07:39.596Z,2.90
2018-02-11T22:10:07.886Z,2.73
2018-02-11T22:12:35.429Z,3.07
2018-02-11T22:15:03.393Z,3.07
2018-02-11T22:17:31.671Z,3.40
2018-02-11T22:20:00.284Z,2.80
2018-02-11T22:22:27.811Z,2.80
2018-02-11T22:24:56.790Z,2.30
2018-02-11T22:27:25.081Z,3.03
2018-02-11T22:29:53.377Z,3.33
2018-02-11T22:32:21.616Z,3.37
2018-02-11T22:34:49.906Z,2.73
2018-02-11T22:37:17.437Z,2.40
2018-02-11T22:39:44.952Z,3.13
2018-02-11T22:42:19.032Z,2.70
2018-02-11T22:44:47.313Z,2.40
2018-02-11T22:47:15.783Z,2.43
2018-02-11T22:49:44.063Z,1.93
2018-02-11T22:52:12.359Z,2.70
2018-02-11T22:54:40.548Z,2.43
2018-02-11T22:57:08.055Z,2.10
2018-02-11T22:59:36.335Z,2.63
2018-02-11T23:02:04.619Z,2.33
2018-02-11T23:04:32.893Z,2.20
2018-02-11T23:07:01.194Z,2.13
2018-02-11T23:09:28.703Z,1.77
2018-02-11T23:11:56.223Z,1.63
2018-02-11T23:14:23.732Z,1.77
2018-02-11T23:16:52.011Z,1.93
2018-02-11T23:19:20.374Z,1.10
2018-02-11T23:21:48.470Z,1.27
2018-02-11T23:24:16.747Z,1.20
2018-02-11T23:26:45.048Z,1.27
2018-02-11T23:29:12.604Z,1.60
2018-02-11T23:31:40.115Z,1.30
2018-02-11T23:34:07.645Z,1.30
2018-02-11T23:36:35.155Z,1.30
2018-02-11T23:39:03.423Z,1.33
2018-02-11T23:41:32.220Z,1.20
2018-02-11T23:44:00.489Z,1.20
2018-02-11T23:46:28.777Z,1.43
2018-02-11T23:48:56.715Z,1.20
2018-02-11T23:51:24.253Z,1.60
2018-02-11T23:53:54.344Z,1.10
2018-02-11T23:56:21.898Z,1.43
2018-02-11T23:58:49.415Z,1.13
